createdAt,value
2023-02-27T00:01:23.311Z,7.60
2023-02-27T00:04:26.389Z,7.87
2023-02-27T00:07:29.343Z,5.07
2023-02-27T00:10:32.705Z,5.25
2023-02-27T00:13:37.267Z,6.80
2023-02-27T00:16:40.379Z,9.23
2023-02-27T00:19:43.206Z,3.72
2023-02-27T00:22:46.634Z,4.12
2023-02-27T00:25:50.109Z,4.37
2023-02-27T00:28:53.916Z,4.53
2023-02-27T00:31:58.454Z,4.07
2023-02-27T00:35:02.422Z,5.80
2023-02-27T00:38:05.392Z,5.03
2023-02-27T00:41:08.842Z,3.78
2023-02-27T00:44:11.543Z,6.43
2023-02-27T00:47:14.624Z,5.22
2023-02-27T00:50:17.871Z,5.65
2023-02-27T00:53:21.063Z,4.80
2023-02-27T00:56:23.940Z,5.05
2023-02-27T00:59:27.259Z,5.95
2023-02-27T01:02:30.513Z,7.60
2023-02-27T01:05:33.658Z,5.32
2023-02-27T01:08:36.487Z,7.70
2023-02-27T01:11:40.762Z,7.47
2023-02-27T01:14:44.460Z,4.22
2023-02-27T01:17:48.123Z,8.00
2023-02-27T05:47:20.120Z,4.28
2023-02-27T05:50:30.884Z,4.43
2023-02-27T05:53:38.224Z,5.87
2023-02-27T05:56:46.517Z,5.45
2023-02-27T06:00:21.300Z,5.22
2023-02-27T06:03:25.872Z,4.30
2023-02-27T06:06:30.674Z,4.28
2023-02-27T06:09:33.954Z,3.92
2023-02-27T06:12:36.741Z,6.28
2023-02-27T06:16:17.226Z,6.22
2023-02-27T06:19:39.827Z,5.82
2023-02-27T06:23:42.741Z,5.03
2023-02-27T06:27:10.246Z,4.80
2023-02-27T06:30:34.340Z,6.15
2023-02-27T16:40:37.673Z,5.80
2023-02-27T16:43:41.293Z,5.45
2023-02-27T16:46:44.635Z,4.45
2023-02-27T16:50:47.695Z,6.28
2023-02-27T16:53:56.778Z,8.25
2023-02-27T16:57:04.353Z,7.87
2023-02-27T17:00:10.852Z,6.03
2023-02-27T17:03:30.722Z,5.32
2023-02-27T17:06:51.948Z,6.45
2023-02-27T17:10:00.561Z,8.82
2023-02-27T17:13:23.281Z,12.15
2023-02-27T17:17:06.995Z,6.72
2023-02-27T17:20:12.314Z,12.45
2023-02-27T17:23:21.480Z,14.87
2023-02-27T17:26:28.953Z,14.07
2023-02-27T17:29:38.598Z,14.60
2023-02-27T17:32:41.833Z,15.88
2023-02-27T17:35:44.983Z,11.00
2023-02-27T17:39:08.027Z,13.95
2023-02-27T17:42:18.608Z,9.65
2023-02-27T17:45:21.868Z,26.35
2023-02-27T17:48:29.039Z,8.68
2023-02-27T17:51:32.350Z,8.48
2023-02-27T17:55:06.592Z,7.95
2023-02-27T17:58:10.220Z,6.68
2023-02-27T18:02:14.544Z,5.12
2023-02-27T18:05:18.221Z,7.22
2023-02-27T18:08:20.942Z,6.55
2023-02-27T18:11:24.068Z,7.53
2023-02-27T18:14:26.854Z,12.75
2023-02-27T18:17:29.948Z,14.93
2023-02-27T18:20:33.285Z,11.93
2023-02-27T18:23:36.991Z,16.92
2023-02-27T18:26:40.152Z,30.83
2023-02-27T18:29:49.412Z,13.73
2023-02-27T18:32:57.977Z,13.43
2023-02-27T18:36:01.195Z,13.82
2023-02-27T18:39:05.148Z,13.45
2023-02-27T18:42:08.510Z,11.88
2023-02-27T18:45:43.167Z,16.48
2023-02-27T18:48:46.804Z,11.30
2023-02-27T18:51:49.753Z,13.07
2023-02-27T18:54:55.895Z,15.48
2023-02-27T18:57:58.671Z,12.43
2023-02-27T19:01:07.426Z,12.95
2023-02-27T19:04:10.577Z,12.60
2023-02-27T19:07:14.673Z,14.35
2023-02-27T19:10:17.493Z,8.98
2023-02-27T19:13:20.578Z,37.17
2023-02-27T19:16:23.829Z,29.35
2023-02-27T19:19:30.169Z,21.70
2023-02-27T19:22:34.813Z,18.65
2023-02-27T19:25:38.048Z,17.62
2023-02-27T19:28:43.949Z,23.58
2023-02-27T19:31:47.677Z,16.85
2023-02-27T19:34:50.855Z,14.73
2023-02-27T19:37:58.662Z,16.08
2023-02-27T19:41:07.437Z,14.55
2023-02-27T19:44:51.026Z,10.93
2023-02-27T19:48:18.924Z,12.85
2023-02-27T19:51:22.463Z,11.12
2023-02-27T19:54:25.611Z,12.85
2023-02-27T19:57:28.790Z,13.02
2023-02-27T20:00:32.362Z,11.65
2023-02-27T20:03:36.468Z,9.93
2023-02-27T20:07:10.055Z,12.45
2023-02-27T20:10:13.608Z,11.52
2023-02-27T20:13:16.691Z,10.88
2023-02-27T20:16:40.576Z,5.40
2023-02-27T20:20:06.079Z,8.07
2023-02-27T20:23:30.888Z,8.15
2023-02-27T20:26:38.958Z,9.77
2023-02-27T20:30:02.493Z,5.53
2023-02-27T20:33:07.282Z,10.15
2023-02-27T20:36:51.921Z,9.50
2023-02-27T20:39:54.804Z,7.75
2023-02-27T20:42:58.286Z,6.82
2023-02-27T22:40:51.278Z,9.73
2023-02-27T22:43:55.334Z,11.65
2023-02-27T22:46:58.096Z,7.55
2023-02-27T22:50:01.510Z,8.55
2023-02-27T22:53:04.215Z,7.85
2023-02-27T22:56:09.979Z,6.22
2023-02-27T22:59:12.849Z,11.80
2023-02-27T23:02:17.373Z,6.03
2023-02-27T23:05:20.189Z,4.75
2023-02-27T23:08:23.240Z,10.45
2023-02-27T23:11:26.590Z,8.95
2023-02-27T23:14:29.951Z,5.87
2023-02-27T23:17:36.113Z,7.00
2023-02-27T23:20:40.501Z,6.47
2023-02-27T23:23:43.432Z,4.53
2023-02-27T23:26:49.828Z,4.85
2023-02-27T23:29:52.601Z,4.07
2023-02-27T23:32:56.863Z,5.12
2023-02-27T23:36:00.956Z,5.20
2023-02-27T23:39:06.180Z,8.10
2023-02-27T23:42:09.263Z,4.68
2023-02-27T23:45:25.026Z,4.20
2023-02-27T23:48:28.008Z,7.50
2023-02-27T23:51:31.550Z,6.85
2023-02-27T23:54:34.792Z,6.80
2023-02-27T23:57:37.850Z,5.40
